Baden Baden, Illinois
Current Conditions -  °F | °C
As of 9:01 PM on Wednesday 26 Nov 2014 (Local Time) from KBLV Reporting Station
Haze Haze  
Wind Chill: 32°   Ceiling: 400
Heat Index: 32°   Visibility: 2.5mi
Dew Point: 32°   Wind: 2mph
Humidity: 100%   Direction: 310°NW
Pressure: 30.09"   Gusts: NA
Location:  38.7728°N, 89.5031°W
Report Text: KBLV 270301Z AUTO 31002KT 2 1/2SM R14R/3500FT BR OVC004 00/00 A3009 RMK AO2 VIS 2 1/2V3
Loading
Personal Weather Stations






























Interactive Weather Map New forecast layout! Learn more

10-Day Weather Forecast

Advertisements
Track Severe Weather on mobile